sensor_id;sensor_type;location;lat;lon;timestamp;P1;durP1;ratioP1;P2;durP2;ratioP2
55140;SDS011;41035;44.280;19.870;2022-12-29T00:01:40;79.32;;;39.67;;
55140;SDS011;41035;44.280;19.870;2022-12-29T00:04:06;73.68;;;34.30;;
55140;SDS011;41035;44.280;19.870;2022-12-29T00:06:32;61.05;;;29.85;;
55140;SDS011;41035;44.280;19.870;2022-12-29T00:08:58;61.60;;;30.83;;
55140;SDS011;41035;44.280;19.870;2022-12-29T00:11:25;66.50;;;32.33;;
55140;SDS011;41035;44.280;19.870;2022-12-29T00:13:52;72.03;;;34.67;;
55140;SDS011;41035;44.280;19.870;2022-12-29T00:16:38;70.72;;;28.30;;
55140;SDS011;41035;44.280;19.870;2022-12-29T00:19:06;83.68;;;40.92;;
55140;SDS011;41035;44.280;19.870;2022-12-29T00:21:51;79.00;;;38.95;;
55140;SDS011;41035;44.280;19.870;2022-12-29T00:24:36;54.42;;;28.02;;
55140;SDS011;41035;44.280;19.870;2022-12-29T00:27:21;54.80;;;28.23;;
55140;SDS011;41035;44.280;19.870;2022-12-29T00:30:10;50.75;;;25.40;;
55140;SDS011;41035;44.280;19.870;2022-12-29T00:32:55;51.80;;;25.27;;
55140;SDS011;41035;44.280;19.870;2022-12-29T00:35:43;45.90;;;23.52;;
55140;SDS011;41035;44.280;19.870;2022-12-29T00:38:10;49.78;;;25.60;;
55140;SDS011;41035;44.280;19.870;2022-12-29T00:40:55;88.63;;;41.90;;
55140;SDS011;41035;44.280;19.870;2022-12-29T00:43:40;92.22;;;43.10;;
55140;SDS011;41035;44.280;19.870;2022-12-29T00:46:24;67.63;;;34.15;;
55140;SDS011;41035;44.280;19.870;2022-12-29T00:48:50;67.07;;;32.20;;
55140;SDS011;41035;44.280;19.870;2022-12-29T00:51:35;65.60;;;30.88;;
55140;SDS011;41035;44.280;19.870;2022-12-29T00:54:01;66.40;;;33.35;;
55140;SDS011;41035;44.280;19.870;2022-12-29T00:56:27;69.00;;;30.95;;
55140;SDS011;41035;44.280;19.870;2022-12-29T00:58:53;67.15;;;32.60;;
55140;SDS011;41035;44.280;19.870;2022-12-29T01:01:19;66.70;;;34.60;;
55140;SDS011;41035;44.280;19.870;2022-12-29T01:03:52;51.42;;;27.95;;
55140;SDS011;41035;44.280;19.870;2022-12-29T01:06:18;48.78;;;26.73;;
55140;SDS011;41035;44.280;19.870;2022-12-29T01:08:44;62.08;;;30.33;;
55140;SDS011;41035;44.280;19.870;2022-12-29T01:11:11;63.83;;;31.10;;
55140;SDS011;41035;44.280;19.870;2022-12-29T01:13:37;50.63;;;25.05;;
55140;SDS011;41035;44.280;19.870;2022-12-29T01:16:04;53.05;;;26.17;;
55140;SDS011;41035;44.280;19.870;2022-12-29T01:18:30;73.90;;;34.85;;
55140;SDS011;41035;44.280;19.870;2022-12-29T01:21:03;83.07;;;37.83;;
55140;SDS011;41035;44.280;19.870;2022-12-29T01:23:33;76.18;;;36.83;;
55140;SDS011;41035;44.280;19.870;2022-12-29T01:26:08;79.28;;;36.17;;
55140;SDS011;41035;44.280;19.870;2022-12-29T01:28:34;52.55;;;26.08;;
55140;SDS011;41035;44.280;19.870;2022-12-29T01:31:00;59.03;;;29.05;;
55140;SDS011;41035;44.280;19.870;2022-12-29T01:33:26;82.78;;;39.42;;
55140;SDS011;41035;44.280;19.870;2022-12-29T01:35:53;66.40;;;30.90;;
55140;SDS011;41035;44.280;19.870;2022-12-29T01:38:19;55.28;;;28.75;;
55140;SDS011;41035;44.280;19.870;2022-12-29T01:40:45;40.55;;;21.80;;
55140;SDS011;41035;44.280;19.870;2022-12-29T01:43:12;39.63;;;19.85;;
55140;SDS011;41035;44.280;19.870;2022-12-29T01:45:40;42.30;;;21.55;;
55140;SDS011;41035;44.280;19.870;2022-12-29T01:48:08;50.85;;;24.40;;
55140;SDS011;41035;44.280;19.870;2022-12-29T01:50:36;36.42;;;19.75;;
55140;SDS011;41035;44.280;19.870;2022-12-29T01:53:06;56.03;;;25.02;;
55140;SDS011;41035;44.280;19.870;2022-12-29T01:55:40;57.83;;;28.30;;
55140;SDS011;41035;44.280;19.870;2022-12-29T01:58:07;82.28;;;38.22;;
55140;SDS011;41035;44.280;19.870;2022-12-29T02:00:34;58.75;;;28.08;;
55140;SDS011;41035;44.280;19.870;2022-12-29T02:03:00;61.45;;;30.42;;
55140;SDS011;41035;44.280;19.870;2022-12-29T02:05:46;48.95;;;25.85;;
55140;SDS011;41035;44.280;19.870;2022-12-29T02:08:13;51.78;;;26.15;;
55140;SDS011;41035;44.280;19.870;2022-12-29T02:10:39;60.28;;;31.83;;
55140;SDS011;41035;44.280;19.870;2022-12-29T02:13:06;55.22;;;29.00;;
55140;SDS011;41035;44.280;19.870;2022-12-29T02:15:40;50.70;;;26.42;;
55140;SDS011;41035;44.280;19.870;2022-12-29T02:31:02;28.00;;;14.88;;
55140;SDS011;41035;44.280;19.870;2022-12-29T02:36:02;38.42;;;17.48;;
55140;SDS011;41035;44.280;19.870;2022-12-29T02:44:01;119.35;;;61.70;;
55140;SDS011;41035;44.280;19.870;2022-12-29T02:49:49;46.10;;;24.50;;
55140;SDS011;41035;44.280;19.870;2022-12-29T02:52:08;64.40;;;34.65;;
55140;SDS011;41035;44.280;19.870;2022-12-29T02:54:35;196.95;;;105.82;;
55140;SDS011;41035;44.280;19.870;2022-12-29T02:57:27;268.25;;;140.60;;
55140;SDS011;41035;44.280;19.870;2022-12-29T02:59:58;205.65;;;114.95;;
55140;SDS011;41035;44.280;19.870;2022-12-29T03:15:43;45.10;;;24.60;;
55140;SDS011;41035;44.280;19.870;2022-12-29T03:18:44;44.25;;;22.73;;
55140;SDS011;41035;44.280;19.870;2022-12-29T03:21:17;55.08;;;27.75;;
55140;SDS011;41035;44.280;19.870;2022-12-29T03:23:45;44.38;;;24.08;;
55140;SDS011;41035;44.280;19.870;2022-12-29T03:26:13;40.27;;;23.13;;
55140;SDS011;41035;44.280;19.870;2022-12-29T03:28:53;38.70;;;22.05;;
55140;SDS011;41035;44.280;19.870;2022-12-29T03:31:19;35.40;;;20.30;;
55140;SDS011;41035;44.280;19.870;2022-12-29T03:33:49;50.55;;;27.20;;
55140;SDS011;41035;44.280;19.870;2022-12-29T03:36:18;50.47;;;26.17;;
55140;SDS011;41035;44.280;19.870;2022-12-29T03:38:56;39.83;;;23.15;;
55140;SDS011;41035;44.280;19.870;2022-12-29T03:41:27;47.42;;;27.23;;
55140;SDS011;41035;44.280;19.870;2022-12-29T03:43:54;39.03;;;21.48;;
55140;SDS011;41035;44.280;19.870;2022-12-29T03:46:20;52.60;;;27.45;;
55140;SDS011;41035;44.280;19.870;2022-12-29T03:48:46;54.20;;;29.48;;
55140;SDS011;41035;44.280;19.870;2022-12-29T03:51:12;47.92;;;29.02;;
55140;SDS011;41035;44.280;19.870;2022-12-29T03:53:38;34.78;;;20.02;;
55140;SDS011;41035;44.280;19.870;2022-12-29T03:56:19;33.72;;;18.25;;
55140;SDS011;41035;44.280;19.870;2022-12-29T03:58:45;32.30;;;19.08;;
55140;SDS011;41035;44.280;19.870;2022-12-29T04:01:11;36.35;;;19.98;;
55140;SDS011;41035;44.280;19.870;2022-12-29T04:03:38;43.03;;;22.33;;
55140;SDS011;41035;44.280;19.870;2022-12-29T04:06:04;34.08;;;17.25;;
55140;SDS011;41035;44.280;19.870;2022-12-29T04:08:33;46.45;;;26.90;;
55140;SDS011;41035;44.280;19.870;2022-12-29T04:11:03;51.20;;;27.08;;
55140;SDS011;41035;44.280;19.870;2022-12-29T04:13:35;41.72;;;22.70;;
55140;SDS011;41035;44.280;19.870;2022-12-29T04:19:06;34.25;;;19.42;;
55140;SDS011;41035;44.280;19.870;2022-12-29T04:21:53;35.92;;;18.88;;
55140;SDS011;41035;44.280;19.870;2022-12-29T04:24:19;30.40;;;18.20;;
55140;SDS011;41035;44.280;19.870;2022-12-29T04:26:45;45.03;;;21.25;;
55140;SDS011;41035;44.280;19.870;2022-12-29T04:29:11;38.97;;;19.33;;
55140;SDS011;41035;44.280;19.870;2022-12-29T04:31:38;44.88;;;22.23;;
55140;SDS011;41035;44.280;19.870;2022-12-29T04:34:04;43.45;;;21.17;;
55140;SDS011;41035;44.280;19.870;2022-12-29T04:36:30;50.83;;;27.13;;
55140;SDS011;41035;44.280;19.870;2022-12-29T04:38:56;47.85;;;24.02;;
55140;SDS011;41035;44.280;19.870;2022-12-29T04:41:23;27.15;;;15.65;;
55140;SDS011;41035;44.280;19.870;2022-12-29T04:43:49;37.85;;;19.20;;
55140;SDS011;41035;44.280;19.870;2022-12-29T04:46:15;34.03;;;17.67;;
55140;SDS011;41035;44.280;19.870;2022-12-29T04:48:41;61.85;;;32.90;;
55140;SDS011;41035;44.280;19.870;2022-12-29T04:51:07;53.17;;;26.25;;
55140;SDS011;41035;44.280;19.870;2022-12-29T04:53:34;69.93;;;34.75;;
55140;SDS011;41035;44.280;19.870;2022-12-29T04:56:00;50.83;;;24.67;;
55140;SDS011;41035;44.280;19.870;2022-12-29T04:58:26;52.10;;;26.30;;
55140;SDS011;41035;44.280;19.870;2022-12-29T05:00:52;41.95;;;21.27;;
55140;SDS011;41035;44.280;19.870;2022-12-29T05:03:18;46.83;;;22.95;;
55140;SDS011;41035;44.280;19.870;2022-12-29T05:05:44;53.45;;;27.38;;
55140;SDS011;41035;44.280;19.870;2022-12-29T05:08:10;37.88;;;19.98;;
55140;SDS011;41035;44.280;19.870;2022-12-29T05:10:36;38.42;;;19.35;;
55140;SDS011;41035;44.280;19.870;2022-12-29T05:13:02;65.85;;;33.15;;
55140;SDS011;41035;44.280;19.870;2022-12-29T05:15:28;55.67;;;26.17;;
55140;SDS011;41035;44.280;19.870;2022-12-29T05:17:54;61.50;;;29.50;;
55140;SDS011;41035;44.280;19.870;2022-12-29T05:20:20;29.70;;;14.20;;
55140;SDS011;41035;44.280;19.870;2022-12-29T05:22:46;32.10;;;16.42;;
55140;SDS011;41035;44.280;19.870;2022-12-29T05:25:12;31.60;;;17.75;;
55140;SDS011;41035;44.280;19.870;2022-12-29T05:27:38;36.55;;;17.27;;
55140;SDS011;41035;44.280;19.870;2022-12-29T05:30:05;43.55;;;21.33;;
55140;SDS011;41035;44.280;19.870;2022-12-29T05:32:31;45.88;;;23.60;;
55140;SDS011;41035;44.280;19.870;2022-12-29T05:34:57;33.90;;;15.55;;
55140;SDS011;41035;44.280;19.870;2022-12-29T05:37:23;34.28;;;18.33;;
55140;SDS011;41035;44.280;19.870;2022-12-29T05:39:50;66.30;;;36.70;;
55140;SDS011;41035;44.280;19.870;2022-12-29T05:42:20;52.20;;;24.63;;
55140;SDS011;41035;44.280;19.870;2022-12-29T05:44:46;35.47;;;19.02;;
55140;SDS011;41035;44.280;19.870;2022-12-29T05:49:41;50.17;;;25.15;;
55140;SDS011;41035;44.280;19.870;2022-12-29T05:52:07;54.00;;;25.65;;
55140;SDS011;41035;44.280;19.870;2022-12-29T05:54:39;39.47;;;21.08;;
55140;SDS011;41035;44.280;19.870;2022-12-29T05:57:08;48.00;;;23.65;;
55140;SDS011;41035;44.280;19.870;2022-12-29T05:59:34;48.38;;;23.35;;
55140;SDS011;41035;44.280;19.870;2022-12-29T06:02:01;47.30;;;26.55;;
55140;SDS011;41035;44.280;19.870;2022-12-29T06:04:27;48.22;;;26.50;;
55140;SDS011;41035;44.280;19.870;2022-12-29T06:06:53;55.83;;;29.23;;
55140;SDS011;41035;44.280;19.870;2022-12-29T06:09:19;60.15;;;31.35;;
55140;SDS011;41035;44.280;19.870;2022-12-29T06:11:45;57.22;;;30.67;;
55140;SDS011;41035;44.280;19.870;2022-12-29T06:14:11;68.05;;;35.47;;
55140;SDS011;41035;44.280;19.870;2022-12-29T06:16:37;61.85;;;35.80;;
55140;SDS011;41035;44.280;19.870;2022-12-29T06:19:03;57.92;;;29.90;;
55140;SDS011;41035;44.280;19.870;2022-12-29T06:21:29;73.03;;;38.40;;
55140;SDS011;41035;44.280;19.870;2022-12-29T06:23:55;77.32;;;41.13;;
55140;SDS011;41035;44.280;19.870;2022-12-29T06:26:21;81.90;;;41.03;;
55140;SDS011;41035;44.280;19.870;2022-12-29T06:28:48;69.57;;;34.97;;
55140;SDS011;41035;44.280;19.870;2022-12-29T06:31:14;59.35;;;33.08;;
55140;SDS011;41035;44.280;19.870;2022-12-29T06:33:40;79.90;;;43.40;;
55140;SDS011;41035;44.280;19.870;2022-12-29T06:36:06;63.50;;;29.80;;
55140;SDS011;41035;44.280;19.870;2022-12-29T06:38:32;55.72;;;26.35;;
55140;SDS011;41035;44.280;19.870;2022-12-29T06:41:00;64.50;;;32.00;;
55140;SDS011;41035;44.280;19.870;2022-12-29T06:43:26;40.97;;;21.52;;
55140;SDS011;41035;44.280;19.870;2022-12-29T06:45:52;107.05;;;46.17;;
55140;SDS011;41035;44.280;19.870;2022-12-29T06:48:18;120.05;;;54.65;;
55140;SDS011;41035;44.280;19.870;2022-12-29T06:50:44;92.30;;;46.30;;
55140;SDS011;41035;44.280;19.870;2022-12-29T06:53:10;103.10;;;55.22;;
55140;SDS011;41035;44.280;19.870;2022-12-29T06:55:36;101.00;;;52.97;;
55140;SDS011;41035;44.280;19.870;2022-12-29T06:58:02;105.75;;;52.78;;
55140;SDS011;41035;44.280;19.870;2022-12-29T07:00:28;120.55;;;60.83;;
55140;SDS011;41035;44.280;19.870;2022-12-29T07:02:55;94.95;;;50.35;;
55140;SDS011;41035;44.280;19.870;2022-12-29T07:05:25;82.60;;;43.90;;
55140;SDS011;41035;44.280;19.870;2022-12-29T07:07:52;107.10;;;53.10;;
55140;SDS011;41035;44.280;19.870;2022-12-29T07:10:18;112.70;;;53.13;;
55140;SDS011;41035;44.280;19.870;2022-12-29T07:12:45;124.28;;;59.67;;
55140;SDS011;41035;44.280;19.870;2022-12-29T07:15:11;134.50;;;69.22;;
55140;SDS011;41035;44.280;19.870;2022-12-29T07:17:37;82.65;;;43.10;;
55140;SDS011;41035;44.280;19.870;2022-12-29T07:20:04;75.20;;;41.67;;
55140;SDS011;41035;44.280;19.870;2022-12-29T07:22:30;97.30;;;50.92;;
55140;SDS011;41035;44.280;19.870;2022-12-29T07:24:56;93.28;;;52.25;;
55140;SDS011;41035;44.280;19.870;2022-12-29T07:27:22;96.05;;;48.88;;
55140;SDS011;41035;44.280;19.870;2022-12-29T07:29:48;85.50;;;48.30;;
55140;SDS011;41035;44.280;19.870;2022-12-29T07:32:14;94.28;;;51.72;;
55140;SDS011;41035;44.280;19.870;2022-12-29T07:34:40;96.82;;;56.28;;
55140;SDS011;41035;44.280;19.870;2022-12-29T07:37:06;89.88;;;49.25;;
55140;SDS011;41035;44.280;19.870;2022-12-29T07:39:33;85.68;;;48.35;;
55140;SDS011;41035;44.280;19.870;2022-12-29T07:41:59;93.72;;;50.40;;
55140;SDS011;41035;44.280;19.870;2022-12-29T07:44:25;137.27;;;69.50;;
55140;SDS011;41035;44.280;19.870;2022-12-29T07:46:51;143.48;;;75.05;;
55140;SDS011;41035;44.280;19.870;2022-12-29T07:49:17;129.65;;;70.15;;
55140;SDS011;41035;44.280;19.870;2022-12-29T07:51:43;177.82;;;91.85;;
55140;SDS011;41035;44.280;19.870;2022-12-29T07:54:09;166.05;;;89.00;;
55140;SDS011;41035;44.280;19.870;2022-12-29T07:56:37;136.95;;;80.50;;
55140;SDS011;41035;44.280;19.870;2022-12-29T07:59:03;219.15;;;114.20;;
55140;SDS011;41035;44.280;19.870;2022-12-29T08:01:29;555.42;;;302.67;;
55140;SDS011;41035;44.280;19.870;2022-12-29T08:03:55;243.30;;;134.75;;
55140;SDS011;41035;44.280;19.870;2022-12-29T08:06:21;214.68;;;118.43;;
55140;SDS011;41035;44.280;19.870;2022-12-29T08:08:47;283.30;;;151.35;;
55140;SDS011;41035;44.280;19.870;2022-12-29T08:11:13;280.98;;;153.07;;
55140;SDS011;41035;44.280;19.870;2022-12-29T08:13:39;200.57;;;115.00;;
55140;SDS011;41035;44.280;19.870;2022-12-29T08:16:05;195.00;;;108.50;;
55140;SDS011;41035;44.280;19.870;2022-12-29T08:18:31;212.18;;;116.38;;
55140;SDS011;41035;44.280;19.870;2022-12-29T08:21:01;189.80;;;106.55;;
55140;SDS011;41035;44.280;19.870;2022-12-29T08:23:28;179.73;;;103.68;;
55140;SDS011;41035;44.280;19.870;2022-12-29T08:26:00;234.75;;;128.40;;
55140;SDS011;41035;44.280;19.870;2022-12-29T08:28:27;359.10;;;198.48;;
55140;SDS011;41035;44.280;19.870;2022-12-29T08:30:53;479.63;;;273.13;;
55140;SDS011;41035;44.280;19.870;2022-12-29T08:33:19;447.10;;;250.18;;
55140;SDS011;41035;44.280;19.870;2022-12-29T08:35:45;452.83;;;258.08;;
55140;SDS011;41035;44.280;19.870;2022-12-29T08:38:11;363.70;;;202.10;;
55140;SDS011;41035;44.280;19.870;2022-12-29T08:40:38;231.23;;;129.52;;
55140;SDS011;41035;44.280;19.870;2022-12-29T08:43:04;194.48;;;111.93;;
55140;SDS011;41035;44.280;19.870;2022-12-29T08:45:30;189.15;;;111.97;;
55140;SDS011;41035;44.280;19.870;2022-12-29T08:47:56;141.65;;;83.03;;
55140;SDS011;41035;44.280;19.870;2022-12-29T08:50:22;121.25;;;74.80;;
55140;SDS011;41035;44.280;19.870;2022-12-29T08:52:49;119.78;;;72.72;;
55140;SDS011;41035;44.280;19.870;2022-12-29T08:55:15;111.47;;;66.55;;
55140;SDS011;41035;44.280;19.870;2022-12-29T08:57:41;99.03;;;59.13;;
55140;SDS011;41035;44.280;19.870;2022-12-29T09:00:07;77.90;;;46.10;;
55140;SDS011;41035;44.280;19.870;2022-12-29T09:02:33;86.75;;;49.15;;
55140;SDS011;41035;44.280;19.870;2022-12-29T09:04:59;128.38;;;68.82;;
55140;SDS011;41035;44.280;19.870;2022-12-29T09:07:25;140.55;;;77.60;;
55140;SDS011;41035;44.280;19.870;2022-12-29T09:09:52;148.73;;;83.47;;
55140;SDS011;41035;44.280;19.870;2022-12-29T09:12:18;416.00;;;236.02;;
55140;SDS011;41035;44.280;19.870;2022-12-29T09:14:46;519.45;;;313.15;;
55140;SDS011;41035;44.280;19.870;2022-12-29T09:17:12;524.83;;;312.33;;
55140;SDS011;41035;44.280;19.870;2022-12-29T09:19:57;448.88;;;251.93;;
55140;SDS011;41035;44.280;19.870;2022-12-29T09:22:23;450.90;;;257.33;;
55140;SDS011;41035;44.280;19.870;2022-12-29T09:24:49;364.05;;;200.13;;
55140;SDS011;41035;44.280;19.870;2022-12-29T09:27:15;430.48;;;241.20;;
55140;SDS011;41035;44.280;19.870;2022-12-29T09:29:41;421.55;;;244.63;;
55140;SDS011;41035;44.280;19.870;2022-12-29T09:32:07;382.42;;;220.55;;
55140;SDS011;41035;44.280;19.870;2022-12-29T09:34:34;353.20;;;195.82;;
55140;SDS011;41035;44.280;19.870;2022-12-29T09:37:00;378.50;;;186.20;;
55140;SDS011;41035;44.280;19.870;2022-12-29T09:39:26;268.75;;;148.27;;
55140;SDS011;41035;44.280;19.870;2022-12-29T09:41:56;295.25;;;162.45;;
55140;SDS011;41035;44.280;19.870;2022-12-29T09:47:00;415.60;;;242.50;;
55140;SDS011;41035;44.280;19.870;2022-12-29T09:49:32;424.30;;;256.25;;
55140;SDS011;41035;44.280;19.870;2022-12-29T09:52:00;405.67;;;236.70;;
55140;SDS011;41035;44.280;19.870;2022-12-29T09:57:15;463.98;;;268.08;;
55140;SDS011;41035;44.280;19.870;2022-12-29T09:59:42;429.10;;;248.35;;
55140;SDS011;41035;44.280;19.870;2022-12-29T10:04:58;436.15;;;260.45;;
55140;SDS011;41035;44.280;19.870;2022-12-29T10:07:27;459.85;;;275.27;;
55140;SDS011;41035;44.280;19.870;2022-12-29T10:10:03;445.02;;;261.00;;
55140;SDS011;41035;44.280;19.870;2022-12-29T10:25:11;341.35;;;194.82;;
55140;SDS011;41035;44.280;19.870;2022-12-29T10:27:38;259.08;;;141.77;;
55140;SDS011;41035;44.280;19.870;2022-12-29T10:30:04;250.55;;;142.07;;
55140;SDS011;41035;44.280;19.870;2022-12-29T10:32:35;229.52;;;131.13;;
55140;SDS011;41035;44.280;19.870;2022-12-29T10:42:46;162.43;;;87.70;;
55140;SDS011;41035;44.280;19.870;2022-12-29T10:45:16;175.18;;;98.45;;
55140;SDS011;41035;44.280;19.870;2022-12-29T10:47:47;186.10;;;105.40;;
55140;SDS011;41035;44.280;19.870;2022-12-29T10:50:15;206.82;;;115.95;;
55140;SDS011;41035;44.280;19.870;2022-12-29T10:52:41;223.55;;;124.80;;
55140;SDS011;41035;44.280;19.870;2022-12-29T10:55:10;218.43;;;123.00;;
55140;SDS011;41035;44.280;19.870;2022-12-29T10:57:39;244.60;;;135.70;;
55140;SDS011;41035;44.280;19.870;2022-12-29T11:00:13;258.70;;;143.15;;
55140;SDS011;41035;44.280;19.870;2022-12-29T11:08:12;210.45;;;125.07;;
55140;SDS011;41035;44.280;19.870;2022-12-29T11:10:42;256.00;;;147.93;;
55140;SDS011;41035;44.280;19.870;2022-12-29T11:13:13;276.77;;;167.25;;
55140;SDS011;41035;44.280;19.870;2022-12-29T11:15:49;269.92;;;155.48;;
55140;SDS011;41035;44.280;19.870;2022-12-29T11:20:57;300.30;;;172.60;;
55140;SDS011;41035;44.280;19.870;2022-12-29T11:23:32;296.15;;;170.43;;
55140;SDS011;41035;44.280;19.870;2022-12-29T11:28:36;284.13;;;162.65;;
55140;SDS011;41035;44.280;19.870;2022-12-29T11:31:03;226.02;;;129.25;;
55140;SDS011;41035;44.280;19.870;2022-12-29T11:33:30;238.90;;;130.38;;
55140;SDS011;41035;44.280;19.870;2022-12-29T11:36:19;230.23;;;122.05;;
55140;SDS011;41035;44.280;19.870;2022-12-29T11:41:19;185.40;;;107.38;;
55140;SDS011;41035;44.280;19.870;2022-12-29T11:43:46;182.43;;;106.20;;
55140;SDS011;41035;44.280;19.870;2022-12-29T11:46:17;204.90;;;112.43;;
55140;SDS011;41035;44.280;19.870;2022-12-29T11:48:44;221.32;;;120.70;;
55140;SDS011;41035;44.280;19.870;2022-12-29T11:51:12;198.40;;;106.28;;
55140;SDS011;41035;44.280;19.870;2022-12-29T11:53:42;184.65;;;106.78;;
55140;SDS011;41035;44.280;19.870;2022-12-29T11:56:12;185.85;;;103.57;;
55140;SDS011;41035;44.280;19.870;2022-12-29T11:58:44;169.27;;;98.43;;
55140;SDS011;41035;44.280;19.870;2022-12-29T12:01:19;167.02;;;95.10;;
55140;SDS011;41035;44.280;19.870;2022-12-29T12:03:52;157.27;;;87.40;;
55140;SDS011;41035;44.280;19.870;2022-12-29T12:06:22;154.32;;;88.20;;
55140;SDS011;41035;44.280;19.870;2022-12-29T12:08:56;163.57;;;90.50;;
55140;SDS011;41035;44.280;19.870;2022-12-29T12:11:29;164.77;;;93.20;;
55140;SDS011;41035;44.280;19.870;2022-12-29T12:14:07;132.90;;;70.53;;
55140;SDS011;41035;44.280;19.870;2022-12-29T12:16:39;154.63;;;83.75;;
55140;SDS011;41035;44.280;19.870;2022-12-29T12:21:39;240.25;;;120.10;;
55140;SDS011;41035;44.280;19.870;2022-12-29T12:29:37;192.07;;;101.03;;
55140;SDS011;41035;44.280;19.870;2022-12-29T12:32:10;235.52;;;124.13;;
55140;SDS011;41035;44.280;19.870;2022-12-29T12:34:38;290.58;;;151.85;;
55140;SDS011;41035;44.280;19.870;2022-12-29T12:37:21;282.55;;;149.20;;
55140;SDS011;41035;44.280;19.870;2022-12-29T12:45:05;198.80;;;106.20;;
55140;SDS011;41035;44.280;19.870;2022-12-29T12:47:40;191.93;;;104.50;;
55140;SDS011;41035;44.280;19.870;2022-12-29T12:52:45;209.80;;;112.45;;
55140;SDS011;41035;44.280;19.870;2022-12-29T13:00:39;252.35;;;129.38;;
55140;SDS011;41035;44.280;19.870;2022-12-29T13:03:41;154.95;;;83.00;;
55140;SDS011;41035;44.280;19.870;2022-12-29T13:06:18;107.70;;;57.22;;
55140;SDS011;41035;44.280;19.870;2022-12-29T13:16:58;128.10;;;57.72;;
55140;SDS011;41035;44.280;19.870;2022-12-29T13:19:30;133.23;;;59.65;;
55140;SDS011;41035;44.280;19.870;2022-12-29T13:22:12;95.07;;;48.30;;
55140;SDS011;41035;44.280;19.870;2022-12-29T13:35:00;140.35;;;72.32;;
55140;SDS011;41035;44.280;19.870;2022-12-29T13:37:28;132.63;;;66.57;;
55140;SDS011;41035;44.280;19.870;2022-12-29T13:39:57;124.90;;;59.38;;
55140;SDS011;41035;44.280;19.870;2022-12-29T13:42:24;144.40;;;68.40;;
55140;SDS011;41035;44.280;19.870;2022-12-29T13:44:57;180.45;;;88.00;;
55140;SDS011;41035;44.280;19.870;2022-12-29T13:49:51;236.52;;;120.13;;
55140;SDS011;41035;44.280;19.870;2022-12-29T13:52:38;241.23;;;115.25;;
55140;SDS011;41035;44.280;19.870;2022-12-29T14:00:32;208.60;;;106.57;;
55140;SDS011;41035;44.280;19.870;2022-12-29T14:05:45;344.58;;;168.00;;
55140;SDS011;41035;44.280;19.870;2022-12-29T14:08:15;349.98;;;170.60;;
55140;SDS011;41035;44.280;19.870;2022-12-29T14:10:47;288.25;;;143.32;;
55140;SDS011;41035;44.280;19.870;2022-12-29T14:13:18;219.98;;;109.28;;
55140;SDS011;41035;44.280;19.870;2022-12-29T14:15:55;198.65;;;95.22;;
55140;SDS011;41035;44.280;19.870;2022-12-29T14:18:29;216.75;;;109.43;;
55140;SDS011;41035;44.280;19.870;2022-12-29T14:21:11;168.38;;;86.68;;
55140;SDS011;41035;44.280;19.870;2022-12-29T14:23:44;155.20;;;80.65;;
55140;SDS011;41035;44.280;19.870;2022-12-29T14:28:55;511.58;;;185.57;;
55140;SDS011;41035;44.280;19.870;2022-12-29T14:36:41;172.82;;;90.40;;
55140;SDS011;41035;44.280;19.870;2022-12-29T14:44:50;171.30;;;100.50;;
55140;SDS011;41035;44.280;19.870;2022-12-29T14:47:22;170.32;;;98.05;;
55140;SDS011;41035;44.280;19.870;2022-12-29T14:49:51;135.68;;;79.47;;
55140;SDS011;41035;44.280;19.870;2022-12-29T14:52:18;116.93;;;65.88;;
55140;SDS011;41035;44.280;19.870;2022-12-29T14:54:46;278.33;;;148.07;;
55140;SDS011;41035;44.280;19.870;2022-12-29T15:00:33;62.03;;;34.67;;
55140;SDS011;41035;44.280;19.870;2022-12-29T15:05:43;276.38;;;145.05;;
55140;SDS011;41035;44.280;19.870;2022-12-29T15:08:10;256.77;;;134.00;;
55140;SDS011;41035;44.280;19.870;2022-12-29T15:10:42;217.00;;;119.17;;
55140;SDS011;41035;44.280;19.870;2022-12-29T15:13:17;160.00;;;91.72;;
55140;SDS011;41035;44.280;19.870;2022-12-29T15:15:43;188.82;;;108.20;;
55140;SDS011;41035;44.280;19.870;2022-12-29T15:18:22;205.20;;;112.93;;
55140;SDS011;41035;44.280;19.870;2022-12-29T15:21:11;196.02;;;111.43;;
55140;SDS011;41035;44.280;19.870;2022-12-29T15:23:38;269.00;;;152.65;;
55140;SDS011;41035;44.280;19.870;2022-12-29T15:26:05;209.10;;;113.57;;
55140;SDS011;41035;44.280;19.870;2022-12-29T15:28:42;210.90;;;118.93;;
55140;SDS011;41035;44.280;19.870;2022-12-29T15:31:21;225.13;;;124.43;;
55140;SDS011;41035;44.280;19.870;2022-12-29T15:33:50;244.13;;;136.48;;
55140;SDS011;41035;44.280;19.870;2022-12-29T15:36:20;233.70;;;125.70;;
55140;SDS011;41035;44.280;19.870;2022-12-29T15:38:46;222.20;;;115.15;;
55140;SDS011;41035;44.280;19.870;2022-12-29T15:46:09;401.48;;;229.88;;
55140;SDS011;41035;44.280;19.870;2022-12-29T15:48:36;430.83;;;249.45;;
55140;SDS011;41035;44.280;19.870;2022-12-29T15:51:04;467.92;;;252.68;;
55140;SDS011;41035;44.280;19.870;2022-12-29T15:53:36;420.15;;;220.93;;
55140;SDS011;41035;44.280;19.870;2022-12-29T15:56:06;290.65;;;168.52;;
55140;SDS011;41035;44.280;19.870;2022-12-29T15:58:39;278.83;;;161.43;;
55140;SDS011;41035;44.280;19.870;2022-12-29T16:01:17;175.90;;;106.40;;
55140;SDS011;41035;44.280;19.870;2022-12-29T16:03:44;167.23;;;93.50;;
55140;SDS011;41035;44.280;19.870;2022-12-29T16:06:31;288.90;;;128.50;;
55140;SDS011;41035;44.280;19.870;2022-12-29T16:08:57;370.13;;;158.00;;
55140;SDS011;41035;44.280;19.870;2022-12-29T16:14:14;172.23;;;99.70;;
55140;SDS011;41035;44.280;19.870;2022-12-29T16:16:41;228.50;;;119.68;;
55140;SDS011;41035;44.280;19.870;2022-12-29T16:19:14;172.15;;;95.43;;
55140;SDS011;41035;44.280;19.870;2022-12-29T16:21:41;300.08;;;135.25;;
55140;SDS011;41035;44.280;19.870;2022-12-29T16:24:11;256.55;;;123.55;;
55140;SDS011;41035;44.280;19.870;2022-12-29T16:26:38;219.27;;;113.13;;
55140;SDS011;41035;44.280;19.870;2022-12-29T16:29:05;180.93;;;99.18;;
55140;SDS011;41035;44.280;19.870;2022-12-29T16:31:35;161.15;;;87.55;;
55140;SDS011;41035;44.280;19.870;2022-12-29T16:41:49;126.35;;;65.25;;
55140;SDS011;41035;44.280;19.870;2022-12-29T16:44:17;216.98;;;104.55;;
55140;SDS011;41035;44.280;19.870;2022-12-29T16:46:44;507.17;;;228.15;;
55140;SDS011;41035;44.280;19.870;2022-12-29T16:49:22;288.60;;;124.78;;
55140;SDS011;41035;44.280;19.870;2022-12-29T16:51:48;185.25;;;93.55;;
55140;SDS011;41035;44.280;19.870;2022-12-29T16:54:22;543.80;;;251.05;;
55140;SDS011;41035;44.280;19.870;2022-12-29T16:56:49;294.70;;;131.98;;
55140;SDS011;41035;44.280;19.870;2022-12-29T17:00:02;544.08;;;266.67;;
55140;SDS011;41035;44.280;19.870;2022-12-29T17:02:06;209.88;;;100.85;;